createdAt,value
2019-05-09T00:02:45.310Z,1.20
2019-05-09T00:19:36.575Z,1.17
2019-05-09T00:24:58.978Z,1.40
2019-05-09T00:30:44.264Z,1.40
2019-05-09T00:36:33.463Z,1.13
2019-05-09T00:39:24.356Z,1.30
2019-05-09T00:42:13.968Z,1.27
2019-05-09T00:47:36.221Z,1.20
2019-05-09T00:50:25.533Z,1.00
2019-05-09T00:53:14.899Z,1.00
2019-05-09T00:56:04.791Z,1.57
2019-05-09T00:58:35.307Z,1.20
2019-05-09T01:04:13.905Z,1.07
2019-05-09T01:07:03.720Z,1.00
2019-05-09T01:09:54.328Z,1.07
2019-05-09T01:12:44.897Z,1.20
2019-05-09T01:15:25.407Z,1.20
2019-05-09T01:18:15.108Z,1.00
2019-05-09T01:21:04.563Z,1.10
2019-05-09T01:23:47.282Z,1.10
2019-05-09T01:26:25.954Z,1.00
2019-05-09T01:29:18.129Z,1.10
2019-05-09T01:35:06.119Z,1.03
2019-05-09T01:37:47.158Z,1.10
2019-05-09T01:40:53.373Z,1.00
2019-05-09T01:43:44.363Z,1.10
2019-05-09T01:46:54.233Z,0.80
2019-05-09T01:49:44.850Z,0.90
2019-05-09T01:52:34.133Z,1.17
2019-05-09T01:55:43.214Z,1.03
2019-05-09T01:58:34.507Z,1.00
2019-05-09T02:01:27.517Z,1.00
2019-05-09T02:04:16.982Z,0.90
2019-05-09T02:07:06.987Z,1.00
2019-05-09T02:09:56.553Z,1.10
2019-05-09T02:12:37.775Z,1.23
2019-05-09T02:15:38.467Z,1.20
2019-05-09T02:18:44.059Z,1.10
2019-05-09T02:21:25.516Z,1.17
2019-05-09T02:24:08.164Z,1.20
2019-05-09T02:26:50.078Z,1.13
2019-05-09T02:29:20.516Z,1.00
2019-05-09T02:31:51.142Z,1.10
2019-05-09T02:34:40.523Z,1.20
2019-05-09T02:37:30.294Z,0.90
2019-05-09T02:40:23.727Z,1.00
2019-05-09T02:43:18.472Z,1.30
2019-05-09T02:46:29.393Z,1.10
2019-05-09T02:48:59.567Z,1.30
2019-05-09T02:51:49.847Z,1.13
2019-05-09T02:54:43.216Z,0.90
2019-05-09T02:57:32.667Z,0.80
2019-05-09T03:00:42.550Z,1.00
2019-05-09T03:03:39.058Z,0.90
2019-05-09T03:06:28.379Z,1.10
2019-05-09T03:09:19.767Z,1.10
2019-05-09T03:12:21.000Z,1.30
2019-05-09T03:14:48.552Z,1.03
2019-05-09T03:17:30.435Z,1.40
2019-05-09T03:20:18.218Z,1.10
2019-05-09T03:22:58.990Z,1.20
2019-05-09T03:25:41.280Z,1.30
2019-05-09T03:31:40.531Z,1.20
2019-05-09T03:34:21.959Z,1.27
2019-05-09T03:37:08.514Z,1.60
2019-05-09T03:39:49.273Z,1.10
2019-05-09T03:42:58.606Z,1.43
2019-05-09T03:52:07.470Z,1.27
2019-05-09T03:54:57.938Z,1.17
2019-05-09T04:04:30.097Z,1.40
2019-05-09T04:07:19.854Z,1.37
2019-05-09T04:10:13.355Z,1.10
2019-05-09T04:13:08.191Z,1.10
2019-05-09T04:15:58.254Z,1.43
2019-05-09T04:18:49.112Z,1.20
2019-05-09T04:21:38.474Z,2.13
2019-05-09T04:24:22.621Z,1.40
2019-05-09T04:27:08.848Z,1.43
2019-05-09T04:29:51.032Z,1.50
2019-05-09T04:32:32.671Z,1.20
2019-05-09T04:35:17.404Z,2.53
2019-05-09T04:38:00.123Z,2.90
2019-05-09T04:40:44.985Z,1.63
2019-05-09T04:43:34.581Z,1.73
2019-05-09T04:46:12.843Z,1.77
2019-05-09T04:48:54.081Z,1.83
2019-05-09T04:54:20.519Z,2.07
2019-05-09T04:57:02.294Z,2.43
2019-05-09T04:59:43.743Z,1.50
2019-05-09T05:02:31.507Z,1.97
2019-05-09T05:08:31.481Z,1.70
2019-05-09T05:11:21.259Z,1.70
2019-05-09T05:13:52.100Z,1.77
2019-05-09T05:16:41.962Z,1.77
2019-05-09T05:19:17.675Z,1.43
2019-05-09T05:21:49.696Z,1.63
2019-05-09T05:24:39.352Z,1.40
2019-05-09T05:27:30.766Z,1.67
2019-05-09T05:30:01.495Z,1.70
2019-05-09T05:33:10.069Z,1.63
2019-05-09T05:35:48.823Z,1.60
2019-05-09T05:38:39.386Z,1.40
2019-05-09T05:41:13.959Z,1.10
2019-05-09T05:44:08.524Z,1.47
2019-05-09T05:46:58.686Z,1.00
2019-05-09T05:49:50.285Z,1.30
2019-05-09T05:52:40.950Z,1.37
2019-05-09T05:55:14.102Z,1.50
2019-05-09T05:57:47.683Z,1.30
2019-05-09T06:03:17.815Z,1.53
2019-05-09T06:05:51.670Z,1.30
2019-05-09T06:08:39.533Z,1.50
2019-05-09T06:11:29.050Z,1.23
2019-05-09T06:17:09.554Z,1.60
2019-05-09T06:19:44.239Z,1.23
2019-05-09T06:22:13.528Z,1.10
2019-05-09T06:25:03.932Z,1.13
2019-05-09T06:27:37.586Z,1.10
2019-05-09T06:30:29.010Z,1.20
2019-05-09T06:33:19.402Z,1.13
2019-05-09T06:35:53.299Z,0.97
2019-05-09T06:38:28.274Z,1.03
2019-05-09T06:41:00.963Z,1.20
2019-05-09T06:43:39.197Z,1.30
2019-05-09T06:46:27.832Z,1.20
2019-05-09T06:52:17.475Z,1.00
2019-05-09T06:54:48.595Z,1.53
2019-05-09T06:57:42.548Z,0.90
2019-05-09T07:00:31.123Z,1.10
2019-05-09T07:03:08.049Z,1.00
2019-05-09T07:06:08.310Z,0.80
2019-05-09T07:08:47.681Z,0.90
2019-05-09T07:11:21.026Z,0.90
2019-05-09T07:13:51.498Z,0.97
2019-05-09T07:16:22.168Z,0.97
2019-05-09T07:19:11.935Z,0.90
2019-05-09T07:22:01.432Z,1.20
2019-05-09T07:25:10.935Z,1.00
2019-05-09T07:34:27.638Z,1.50
2019-05-09T07:37:18.562Z,1.30
2019-05-09T07:39:50.226Z,1.23
2019-05-09T07:42:21.073Z,1.27
2019-05-09T07:44:52.421Z,1.10
2019-05-09T07:47:35.133Z,1.23
2019-05-09T07:53:28.402Z,1.43
2019-05-09T07:55:58.804Z,0.90
2019-05-09T07:58:29.442Z,1.17
2019-05-09T08:01:21.459Z,1.20
2019-05-09T08:04:18.270Z,1.10
2019-05-09T08:07:08.335Z,1.20
2019-05-09T08:12:49.321Z,1.13
2019-05-09T08:15:33.529Z,1.20
2019-05-09T08:18:28.301Z,1.10
2019-05-09T08:21:02.415Z,1.10
2019-05-09T08:23:37.987Z,1.33
2019-05-09T08:26:30.033Z,1.20
2019-05-09T08:29:20.018Z,1.10
2019-05-09T08:32:11.938Z,0.90
2019-05-09T08:35:01.504Z,0.90
2019-05-09T08:37:31.782Z,0.90
2019-05-09T08:43:28.217Z,0.80
2019-05-09T08:46:19.778Z,1.00
2019-05-09T08:48:53.426Z,1.07
2019-05-09T08:52:14.989Z,0.80
2019-05-09T08:54:48.583Z,1.20
2019-05-09T08:57:19.024Z,1.00
2019-05-09T08:59:58.905Z,0.70
2019-05-09T09:02:51.003Z,0.70
2019-05-09T09:05:43.510Z,0.80
2019-05-09T09:08:18.106Z,0.90
2019-05-09T09:13:44.149Z,0.80
2019-05-09T09:19:24.275Z,1.00
2019-05-09T09:22:00.108Z,0.70
2019-05-09T09:27:27.406Z,0.60
2019-05-09T09:29:58.759Z,0.90
2019-05-09T09:32:49.108Z,0.80
2019-05-09T09:35:19.415Z,0.97
2019-05-09T09:37:54.713Z,0.73
2019-05-09T09:40:28.041Z,0.80
2019-05-09T09:43:34.851Z,0.70
2019-05-09T09:46:14.028Z,0.80
2019-05-09T09:48:55.371Z,0.70
2019-05-09T09:52:05.322Z,0.80
2019-05-09T09:57:29.506Z,0.90
2019-05-09T10:00:44.578Z,0.67
2019-05-09T10:03:34.952Z,0.77
2019-05-09T10:09:43.929Z,0.90
2019-05-09T10:12:23.803Z,1.50
2019-05-09T10:20:54.253Z,0.70
2019-05-09T10:24:02.732Z,0.80
2019-05-09T10:27:10.831Z,0.70
2019-05-09T10:30:01.779Z,0.83
2019-05-09T10:35:42.010Z,0.70
2019-05-09T10:38:34.723Z,0.80
2019-05-09T10:41:24.176Z,0.60
2019-05-09T10:44:32.959Z,0.50
2019-05-09T10:47:23.599Z,1.17
2019-05-09T10:50:44.870Z,0.50
2019-05-09T10:53:58.501Z,0.60
2019-05-09T10:59:44.135Z,0.40
2019-05-09T11:02:34.118Z,0.53
2019-05-09T11:05:34.576Z,0.40
2019-05-09T11:08:42.715Z,0.50
2019-05-09T11:11:53.747Z,0.50
2019-05-09T11:14:44.200Z,0.87
2019-05-09T11:17:19.310Z,0.80
2019-05-09T11:20:08.691Z,0.60
2019-05-09T11:22:58.401Z,0.67
2019-05-09T11:29:09.815Z,0.60
2019-05-09T11:31:40.087Z,0.60
2019-05-09T11:34:49.668Z,0.67
2019-05-09T11:40:30.043Z,0.80
2019-05-09T11:43:20.970Z,0.60
2019-05-09T11:46:10.670Z,0.93
2019-05-09T11:48:50.511Z,0.70
2019-05-09T11:51:40.056Z,0.63
2019-05-09T11:54:48.038Z,0.80
2019-05-09T11:57:27.176Z,0.60
2019-05-09T11:59:57.693Z,0.60
2019-05-09T12:02:46.207Z,0.70
2019-05-09T12:05:37.962Z,0.60
2019-05-09T12:08:27.708Z,0.77
2019-05-09T12:11:18.728Z,0.73
2019-05-09T12:13:49.030Z,0.80
2019-05-09T12:16:38.361Z,0.80
2019-05-09T12:19:29.505Z,0.60
2019-05-09T12:28:20.890Z,0.63
2019-05-09T12:31:22.354Z,0.60
2019-05-09T12:34:04.744Z,0.70
2019-05-09T12:40:10.729Z,0.70
2019-05-09T12:46:30.264Z,1.00
2019-05-09T12:49:22.735Z,0.80
2019-05-09T12:52:12.309Z,0.80
2019-05-09T12:55:03.363Z,0.70
2019-05-09T12:57:33.570Z,0.70
2019-05-09T13:00:04.200Z,0.63
2019-05-09T13:02:53.733Z,0.77
2019-05-09T13:05:24.050Z,0.53
2019-05-09T13:11:02.898Z,0.73
2019-05-09T13:13:33.612Z,0.60
2019-05-09T13:19:48.436Z,0.60
2019-05-09T13:25:58.557Z,0.80
2019-05-09T13:28:50.827Z,0.70
2019-05-09T13:31:40.133Z,0.90
2019-05-09T13:34:49.679Z,0.80
2019-05-09T13:37:40.174Z,0.90
2019-05-09T13:40:29.502Z,1.20
2019-05-09T13:43:19.206Z,1.03
2019-05-09T13:45:49.458Z,0.80
2019-05-09T13:48:57.112Z,0.87
2019-05-09T13:50:52.180Z,0.90
2019-05-09T13:53:44.011Z,1.10
2019-05-09T13:56:42.955Z,0.87
2019-05-09T13:59:32.321Z,1.00
2019-05-09T14:02:44.989Z,0.83
2019-05-09T14:05:53.581Z,1.20
2019-05-09T14:08:43.190Z,0.70
2019-05-09T14:11:32.463Z,0.83
2019-05-09T14:14:22.142Z,0.77
2019-05-09T14:17:03.833Z,0.80
2019-05-09T14:19:47.936Z,0.70
2019-05-09T14:22:18.056Z,0.80
2019-05-09T14:25:11.113Z,0.70
2019-05-09T14:27:58.818Z,0.90
2019-05-09T14:31:07.698Z,0.70
2019-05-09T14:34:09.521Z,0.70
2019-05-09T14:36:49.520Z,0.50
2019-05-09T14:39:54.527Z,0.60
2019-05-09T14:42:30.787Z,0.53
2019-05-09T14:45:20.239Z,0.90
2019-05-09T14:47:52.252Z,0.77
2019-05-09T14:50:43.732Z,0.73
2019-05-09T14:53:52.052Z,0.63
2019-05-09T14:56:42.720Z,0.60
2019-05-09T15:02:41.271Z,0.77
2019-05-09T15:05:11.693Z,1.10
2019-05-09T15:08:01.271Z,0.63
2019-05-09T15:10:53.369Z,1.03
2019-05-09T15:14:04.809Z,1.00
2019-05-09T15:16:35.254Z,0.80
2019-05-09T15:19:18.496Z,0.70
2019-05-09T15:24:35.833Z,0.80
2019-05-09T15:27:06.684Z,0.90
2019-05-09T15:29:39.110Z,0.90
2019-05-09T15:32:28.387Z,0.80
2019-05-09T15:35:33.376Z,0.90
2019-05-09T15:38:13.060Z,1.03
2019-05-09T15:41:11.443Z,1.03
2019-05-09T15:43:57.931Z,0.83
2019-05-09T15:46:59.348Z,1.00
2019-05-09T15:49:41.528Z,0.90
2019-05-09T15:52:23.143Z,1.10
2019-05-09T15:55:09.468Z,0.90
2019-05-09T16:00:39.037Z,0.70
2019-05-09T16:06:09.078Z,0.60
2019-05-09T16:11:37.724Z,0.70
2019-05-09T16:14:27.702Z,0.60
2019-05-09T16:17:39.364Z,0.50
2019-05-09T16:20:10.631Z,0.70
2019-05-09T16:22:44.252Z,0.80
2019-05-09T16:25:20.096Z,0.53
2019-05-09T16:27:51.583Z,0.40
2019-05-09T16:30:41.199Z,0.57
2019-05-09T16:33:36.634Z,0.40
2019-05-09T16:36:08.054Z,0.50
2019-05-09T16:38:45.994Z,0.50
2019-05-09T16:41:39.218Z,0.50
2019-05-09T16:44:28.749Z,0.30
2019-05-09T16:47:21.743Z,0.40
2019-05-09T16:49:50.304Z,0.50
2019-05-09T16:52:21.428Z,0.53
2019-05-09T16:55:15.118Z,0.70
2019-05-09T16:57:45.677Z,0.60
2019-05-09T17:00:38.135Z,0.50
2019-05-09T17:03:13.962Z,0.57
2019-05-09T17:05:44.279Z,0.63
2019-05-09T17:08:19.194Z,0.50
2019-05-09T17:10:49.603Z,0.50
2019-05-09T17:13:40.096Z,0.50
2019-05-09T17:19:23.005Z,0.80
2019-05-09T17:22:17.982Z,0.60
2019-05-09T17:28:18.065Z,0.63
2019-05-09T17:31:09.563Z,0.70
2019-05-09T17:33:58.937Z,0.70
2019-05-09T17:36:48.514Z,0.57
2019-05-09T17:39:54.907Z,0.60
2019-05-09T17:42:32.201Z,0.70
2019-05-09T17:45:24.126Z,0.70
2019-05-09T17:48:28.553Z,1.10
2019-05-09T17:51:05.088Z,1.27
2019-05-09T17:53:59.087Z,1.53
2019-05-09T17:56:50.949Z,1.40
2019-05-09T17:59:43.443Z,1.30
2019-05-09T18:02:32.797Z,1.07
2019-05-09T18:05:25.131Z,1.10
2019-05-09T18:08:14.456Z,1.07
2019-05-09T18:10:48.606Z,1.30
2019-05-09T18:13:59.582Z,1.40
2019-05-09T18:16:32.239Z,1.47
2019-05-09T18:19:10.459Z,1.40
2019-05-09T18:22:12.834Z,1.00
2019-05-09T18:25:10.752Z,1.10
2019-05-09T18:28:00.076Z,0.90
2019-05-09T18:30:30.352Z,1.20
2019-05-09T18:33:20.010Z,1.77
2019-05-09T18:36:09.439Z,0.97
2019-05-09T18:39:19.302Z,1.10
2019-05-09T18:42:27.749Z,1.10
2019-05-09T18:45:00.310Z,1.50
2019-05-09T18:47:48.203Z,1.10
2019-05-09T18:50:22.654Z,1.07
2019-05-09T18:53:15.065Z,1.33
2019-05-09T18:56:04.377Z,1.07
2019-05-09T18:58:53.639Z,3.33
2019-05-09T19:01:29.316Z,1.33
2019-05-09T19:04:25.893Z,1.80
2019-05-09T19:12:59.064Z,1.50
2019-05-09T19:16:07.825Z,1.37
2019-05-09T19:18:57.005Z,0.97
2019-05-09T19:21:35.755Z,1.00
2019-05-09T19:27:20.595Z,1.17
2019-05-09T19:30:10.640Z,1.50
2019-05-09T19:33:00.257Z,0.90
2019-05-09T19:35:31.564Z,1.30
2019-05-09T19:38:21.073Z,1.20
2019-05-09T19:40:53.206Z,0.90
2019-05-09T19:44:02.805Z,1.33
2019-05-09T19:46:33.468Z,1.30
2019-05-09T19:49:11.700Z,0.97
2019-05-09T19:51:54.111Z,1.20
2019-05-09T19:54:22.787Z,0.90
2019-05-09T19:57:34.010Z,1.40
2019-05-09T20:00:25.386Z,1.77
2019-05-09T20:02:58.196Z,2.83
2019-05-09T20:05:50.760Z,2.30
2019-05-09T20:08:44.506Z,1.40
2019-05-09T20:11:37.319Z,1.70
2019-05-09T20:14:41.760Z,1.40
2019-05-09T20:17:27.271Z,1.67
2019-05-09T20:20:16.954Z,1.77
2019-05-09T20:23:07.596Z,1.23
2019-05-09T20:25:38.304Z,4.50
2019-05-09T20:28:09.141Z,2.17
2019-05-09T20:30:42.807Z,0.90
2019-05-09T20:33:13.280Z,0.93
2019-05-09T20:35:46.399Z,1.07
2019-05-09T20:38:35.926Z,1.60
2019-05-09T20:41:08.538Z,2.53
2019-05-09T20:43:39.360Z,1.20
2019-05-09T20:46:32.293Z,1.03
2019-05-09T20:49:21.760Z,1.50
2019-05-09T20:55:06.921Z,1.10
2019-05-09T21:20:50.409Z,1.27
2019-05-09T21:23:40.166Z,1.10
2019-05-09T21:29:39.504Z,0.90
2019-05-09T21:32:31.659Z,0.87
2019-05-09T21:35:21.028Z,1.00
2019-05-09T21:37:51.341Z,1.00
2019-05-09T21:40:40.676Z,0.93
2019-05-09T21:43:29.972Z,0.90
2019-05-09T21:46:19.622Z,1.00
2019-05-09T21:48:50.174Z,0.87
2019-05-09T21:51:21.669Z,0.90
2019-05-09T21:54:31.987Z,1.00
2019-05-09T21:57:02.303Z,0.83
2019-05-09T22:00:13.840Z,0.90
2019-05-09T22:02:44.453Z,1.00
2019-05-09T22:05:37.131Z,1.00
2019-05-09T22:08:26.581Z,1.10
2019-05-09T22:11:34.768Z,1.13
2019-05-09T22:14:43.086Z,1.00
2019-05-09T22:17:50.266Z,1.10
2019-05-09T22:23:06.402Z,1.10
2019-05-09T22:25:35.919Z,1.00
2019-05-09T22:28:25.338Z,1.23
2019-05-09T22:30:55.971Z,1.10
2019-05-09T22:33:46.583Z,1.40
2019-05-09T22:36:17.157Z,1.20
2019-05-09T22:39:27.031Z,1.30
2019-05-09T22:45:25.987Z,1.27
2019-05-09T22:48:16.147Z,1.00
2019-05-09T22:50:46.619Z,1.03
2019-05-09T22:56:36.259Z,1.30
2019-05-09T22:59:44.647Z,1.00
2019-05-09T23:02:14.976Z,1.07
2019-05-09T23:08:33.142Z,1.30
2019-05-09T23:11:22.418Z,1.13
2019-05-09T23:13:52.808Z,1.50
2019-05-09T23:16:40.191Z,1.20
2019-05-09T23:22:03.955Z,1.33
2019-05-09T23:27:44.619Z,1.40
2019-05-09T23:30:34.190Z,1.20
2019-05-09T23:36:52.130Z,1.47
2019-05-09T23:39:43.979Z,1.07
2019-05-09T23:42:33.361Z,1.37
2019-05-09T23:45:06.564Z,1.47
2019-05-09T23:47:47.590Z,1.30
2019-05-09T23:50:17.974Z,0.97
2019-05-09T23:53:07.793Z,1.30
2019-05-09T23:55:56.991Z,1.23
2019-05-09T23:58:46.116Z,1.33
